最新機場天氣預報 (TAF)

TAF VMMC 230030Z 2300/2406 04010KT 8000 FEW010 SCT020 TEMPO 2300/2306 10012KT=

機場天氣預報電碼經解碼後
報告內容 編碼 意義
報告種類之識別 TAF 機場天氣預報
機場代碼 VMMC 中國澳門
發出的日期及時間 230030Z 23/03/2019 00:30 國際時
有效的日期及時間 2300/2406 由 23日 00:00 國際時 至 24日 06:00 國際時
地面風 04010KT 平均風向 040 度, 風速 10 海里
能見度 8000 8 公里
天氣狀況    
雲層狀況/雲層高度 FEW010 SCT020 雲量 1-2份, 雲底 1000 呎;
雲量 3-4份, 雲底 2000 呎
在有效時段內以下一或多項要素將有顯著改變TEMPO 2300/2306 10012KT間中發生 由 23日 00:00 國際時 至 23日 06:00 國際時
風: 平均風向 100 度, 風速 12 海里

其他國際機場:
天氣預報 (TAF)   天氣報告 (METAR)